sensor_id;sensor_type;location;lat;lon;timestamp;P1;durP1;ratioP1;P2;durP2;ratioP2
14292;SDS011;62290;59.420;17.842;2023-03-29T00:00:32;2.50;;;0.98;;
14292;SDS011;62290;59.420;17.842;2023-03-29T00:03:01;1.77;;;0.90;;
14292;SDS011;62290;59.420;17.842;2023-03-29T00:05:30;1.95;;;1.00;;
14292;SDS011;62290;59.420;17.842;2023-03-29T00:08:00;0.52;;;0.50;;
14292;SDS011;62290;59.420;17.842;2023-03-29T00:10:30;1.25;;;0.85;;
14292;SDS011;62290;59.420;17.842;2023-03-29T00:12:59;1.13;;;0.60;;
14292;SDS011;62290;59.420;17.842;2023-03-29T00:15:27;2.90;;;0.95;;
14292;SDS011;62290;59.420;17.842;2023-03-29T00:17:57;0.60;;;0.60;;
14292;SDS011;62290;59.420;17.842;2023-03-29T00:20:25;1.20;;;0.70;;
14292;SDS011;62290;59.420;17.842;2023-03-29T00:22:54;1.10;;;0.73;;
14292;SDS011;62290;59.420;17.842;2023-03-29T00:25:22;1.75;;;0.93;;
14292;SDS011;62290;59.420;17.842;2023-03-29T00:27:50;0.95;;;0.82;;
14292;SDS011;62290;59.420;17.842;2023-03-29T00:30:18;2.30;;;0.70;;
14292;SDS011;62290;59.420;17.842;2023-03-29T00:32:47;1.23;;;0.98;;
14292;SDS011;62290;59.420;17.842;2023-03-29T00:35:17;1.67;;;0.60;;
14292;SDS011;62290;59.420;17.842;2023-03-29T00:37:45;0.88;;;0.47;;
14292;SDS011;62290;59.420;17.842;2023-03-29T00:40:16;1.17;;;0.60;;
14292;SDS011;62290;59.420;17.842;2023-03-29T00:42:45;0.57;;;0.57;;
14292;SDS011;62290;59.420;17.842;2023-03-29T00:45:17;0.73;;;0.60;;
14292;SDS011;62290;59.420;17.842;2023-03-29T00:47:48;1.73;;;0.75;;
14292;SDS011;62290;59.420;17.842;2023-03-29T00:50:20;0.88;;;0.60;;
14292;SDS011;62290;59.420;17.842;2023-03-29T00:52:54;1.27;;;0.50;;
14292;SDS011;62290;59.420;17.842;2023-03-29T00:55:26;1.00;;;0.68;;
14292;SDS011;62290;59.420;17.842;2023-03-29T00:57:59;1.27;;;0.80;;
14292;SDS011;62290;59.420;17.842;2023-03-29T01:00:30;2.17;;;0.50;;
14292;SDS011;62290;59.420;17.842;2023-03-29T01:03:04;1.15;;;0.70;;
14292;SDS011;62290;59.420;17.842;2023-03-29T01:05:41;1.38;;;0.75;;
14292;SDS011;62290;59.420;17.842;2023-03-29T01:08:13;1.98;;;0.80;;
14292;SDS011;62290;59.420;17.842;2023-03-29T01:10:47;1.20;;;0.80;;
14292;SDS011;62290;59.420;17.842;2023-03-29T01:13:19;0.73;;;0.60;;
14292;SDS011;62290;59.420;17.842;2023-03-29T01:15:53;0.80;;;0.80;;
14292;SDS011;62290;59.420;17.842;2023-03-29T01:18:25;1.48;;;0.60;;
14292;SDS011;62290;59.420;17.842;2023-03-29T01:21:00;0.60;;;0.50;;
14292;SDS011;62290;59.420;17.842;2023-03-29T01:23:49;1.17;;;0.70;;
14292;SDS011;62290;59.420;17.842;2023-03-29T01:26:46;0.50;;;0.50;;
14292;SDS011;62290;59.420;17.842;2023-03-29T01:29:23;1.40;;;0.90;;
14292;SDS011;62290;59.420;17.842;2023-03-29T01:31:55;0.73;;;0.70;;
14292;SDS011;62290;59.420;17.842;2023-03-29T01:34:29;1.98;;;0.70;;
14292;SDS011;62290;59.420;17.842;2023-03-29T01:37:02;1.20;;;0.65;;
14292;SDS011;62290;59.420;17.842;2023-03-29T01:39:34;0.90;;;0.60;;
14292;SDS011;62290;59.420;17.842;2023-03-29T01:42:06;1.35;;;0.75;;
14292;SDS011;62290;59.420;17.842;2023-03-29T01:44:44;1.23;;;0.80;;
14292;SDS011;62290;59.420;17.842;2023-03-29T01:47:18;0.80;;;0.60;;
14292;SDS011;62290;59.420;17.842;2023-03-29T01:49:56;1.52;;;0.82;;
14292;SDS011;62290;59.420;17.842;2023-03-29T01:52:33;2.00;;;0.90;;
14292;SDS011;62290;59.420;17.842;2023-03-29T01:55:05;1.33;;;0.80;;
14292;SDS011;62290;59.420;17.842;2023-03-29T01:57:42;1.50;;;0.70;;
14292;SDS011;62290;59.420;17.842;2023-03-29T02:00:19;1.35;;;0.80;;
14292;SDS011;62290;59.420;17.842;2023-03-29T02:02:53;1.05;;;0.63;;
14292;SDS011;62290;59.420;17.842;2023-03-29T02:05:25;2.20;;;0.70;;
14292;SDS011;62290;59.420;17.842;2023-03-29T02:07:57;1.55;;;0.60;;
14292;SDS011;62290;59.420;17.842;2023-03-29T02:10:26;0.85;;;0.70;;
14292;SDS011;62290;59.420;17.842;2023-03-29T02:12:56;1.17;;;0.50;;
14292;SDS011;62290;59.420;17.842;2023-03-29T02:15:26;1.13;;;0.60;;
14292;SDS011;62290;59.420;17.842;2023-03-29T02:17:54;1.30;;;0.68;;
14292;SDS011;62290;59.420;17.842;2023-03-29T02:20:23;1.42;;;0.70;;
14292;SDS011;62290;59.420;17.842;2023-03-29T02:22:56;0.60;;;0.50;;
14292;SDS011;62290;59.420;17.842;2023-03-29T02:25:28;1.30;;;0.90;;
14292;SDS011;62290;59.420;17.842;2023-03-29T02:27:58;0.93;;;0.60;;
14292;SDS011;62290;59.420;17.842;2023-03-29T02:30:31;0.80;;;0.63;;
14292;SDS011;62290;59.420;17.842;2023-03-29T02:33:04;1.27;;;0.70;;
14292;SDS011;62290;59.420;17.842;2023-03-29T02:35:36;6.90;;;0.90;;
14292;SDS011;62290;59.420;17.842;2023-03-29T02:38:10;1.25;;;0.68;;
14292;SDS011;62290;59.420;17.842;2023-03-29T02:40:40;1.15;;;0.70;;
14292;SDS011;62290;59.420;17.842;2023-03-29T02:43:09;3.17;;;0.80;;
14292;SDS011;62290;59.420;17.842;2023-03-29T02:45:41;1.95;;;0.68;;
14292;SDS011;62290;59.420;17.842;2023-03-29T02:48:12;1.40;;;0.82;;
14292;SDS011;62290;59.420;17.842;2023-03-29T02:50:44;0.80;;;0.60;;
14292;SDS011;62290;59.420;17.842;2023-03-29T02:53:16;0.95;;;0.60;;
14292;SDS011;62290;59.420;17.842;2023-03-29T02:55:50;1.02;;;0.75;;
14292;SDS011;62290;59.420;17.842;2023-03-29T02:58:19;1.45;;;0.70;;
14292;SDS011;62290;59.420;17.842;2023-03-29T03:00:57;1.05;;;0.70;;
14292;SDS011;62290;59.420;17.842;2023-03-29T03:03:28;1.23;;;0.75;;
14292;SDS011;62290;59.420;17.842;2023-03-29T03:05:59;1.23;;;0.90;;
14292;SDS011;62290;59.420;17.842;2023-03-29T03:08:29;1.35;;;0.70;;
14292;SDS011;62290;59.420;17.842;2023-03-29T03:10:57;3.38;;;1.00;;
14292;SDS011;62290;59.420;17.842;2023-03-29T03:13:26;2.13;;;0.80;;
14292;SDS011;62290;59.420;17.842;2023-03-29T03:15:56;1.73;;;0.90;;
14292;SDS011;62290;59.420;17.842;2023-03-29T03:18:24;1.63;;;0.98;;
14292;SDS011;62290;59.420;17.842;2023-03-29T03:20:53;1.02;;;0.82;;
14292;SDS011;62290;59.420;17.842;2023-03-29T03:23:22;1.13;;;0.90;;
14292;SDS011;62290;59.420;17.842;2023-03-29T03:25:50;0.93;;;0.75;;
14292;SDS011;62290;59.420;17.842;2023-03-29T03:28:19;2.25;;;0.90;;
14292;SDS011;62290;59.420;17.842;2023-03-29T03:30:49;1.55;;;0.88;;
14292;SDS011;62290;59.420;17.842;2023-03-29T03:33:25;2.28;;;0.85;;
14292;SDS011;62290;59.420;17.842;2023-03-29T03:35:53;1.17;;;0.90;;
14292;SDS011;62290;59.420;17.842;2023-03-29T03:38:23;2.08;;;0.90;;
14292;SDS011;62290;59.420;17.842;2023-03-29T03:40:56;2.67;;;0.95;;
14292;SDS011;62290;59.420;17.842;2023-03-29T03:43:28;1.75;;;0.80;;
14292;SDS011;62290;59.420;17.842;2023-03-29T03:45:56;1.45;;;0.98;;
14292;SDS011;62290;59.420;17.842;2023-03-29T03:48:26;1.95;;;0.88;;
14292;SDS011;62290;59.420;17.842;2023-03-29T03:51:04;1.60;;;1.00;;
14292;SDS011;62290;59.420;17.842;2023-03-29T03:53:33;1.38;;;0.73;;
14292;SDS011;62290;59.420;17.842;2023-03-29T03:56:11;1.55;;;0.93;;
14292;SDS011;62290;59.420;17.842;2023-03-29T03:58:57;2.22;;;0.82;;
14292;SDS011;62290;59.420;17.842;2023-03-29T04:01:27;1.42;;;0.90;;
14292;SDS011;62290;59.420;17.842;2023-03-29T04:04:08;1.90;;;1.15;;
14292;SDS011;62290;59.420;17.842;2023-03-29T04:06:38;1.10;;;0.80;;
14292;SDS011;62290;59.420;17.842;2023-03-29T04:09:35;1.55;;;0.95;;
14292;SDS011;62290;59.420;17.842;2023-03-29T04:12:18;1.10;;;0.65;;
14292;SDS011;62290;59.420;17.842;2023-03-29T04:14:46;1.85;;;1.10;;
14292;SDS011;62290;59.420;17.842;2023-03-29T04:17:19;1.75;;;0.70;;
14292;SDS011;62290;59.420;17.842;2023-03-29T04:19:53;1.33;;;0.80;;
14292;SDS011;62290;59.420;17.842;2023-03-29T04:22:22;2.55;;;1.05;;
14292;SDS011;62290;59.420;17.842;2023-03-29T04:24:52;3.97;;;0.88;;
14292;SDS011;62290;59.420;17.842;2023-03-29T04:27:28;1.20;;;0.52;;
14292;SDS011;62290;59.420;17.842;2023-03-29T04:30:00;1.95;;;0.82;;
14292;SDS011;62290;59.420;17.842;2023-03-29T04:32:46;1.02;;;0.80;;
14292;SDS011;62290;59.420;17.842;2023-03-29T04:35:18;0.57;;;0.50;;
14292;SDS011;62290;59.420;17.842;2023-03-29T04:37:46;1.13;;;0.60;;
14292;SDS011;62290;59.420;17.842;2023-03-29T04:40:16;1.45;;;0.80;;
14292;SDS011;62290;59.420;17.842;2023-03-29T04:43:15;1.25;;;0.95;;
14292;SDS011;62290;59.420;17.842;2023-03-29T04:45:53;1.98;;;0.73;;
14292;SDS011;62290;59.420;17.842;2023-03-29T04:48:40;1.58;;;1.00;;
14292;SDS011;62290;59.420;17.842;2023-03-29T04:51:11;1.33;;;0.82;;
14292;SDS011;62290;59.420;17.842;2023-03-29T04:53:39;3.33;;;0.98;;
14292;SDS011;62290;59.420;17.842;2023-03-29T04:56:07;1.70;;;0.90;;
14292;SDS011;62290;59.420;17.842;2023-03-29T04:58:56;3.55;;;0.98;;
14292;SDS011;62290;59.420;17.842;2023-03-29T05:01:23;2.05;;;0.95;;
14292;SDS011;62290;59.420;17.842;2023-03-29T05:03:56;3.08;;;0.90;;
14292;SDS011;62290;59.420;17.842;2023-03-29T05:06:35;1.80;;;1.02;;
14292;SDS011;62290;59.420;17.842;2023-03-29T05:09:06;2.47;;;1.35;;
14292;SDS011;62290;59.420;17.842;2023-03-29T05:11:47;3.10;;;1.38;;
14292;SDS011;62290;59.420;17.842;2023-03-29T05:14:16;6.97;;;1.92;;
14292;SDS011;62290;59.420;17.842;2023-03-29T05:16:44;12.90;;;2.47;;
14292;SDS011;62290;59.420;17.842;2023-03-29T05:19:13;10.50;;;2.90;;
14292;SDS011;62290;59.420;17.842;2023-03-29T05:21:46;9.35;;;2.25;;
14292;SDS011;62290;59.420;17.842;2023-03-29T05:24:19;11.63;;;2.28;;
14292;SDS011;62290;59.420;17.842;2023-03-29T05:27:10;8.00;;;1.88;;
14292;SDS011;62290;59.420;17.842;2023-03-29T05:29:39;6.50;;;2.03;;
14292;SDS011;62290;59.420;17.842;2023-03-29T05:32:22;12.07;;;2.20;;
14292;SDS011;62290;59.420;17.842;2023-03-29T05:34:51;18.55;;;2.90;;
14292;SDS011;62290;59.420;17.842;2023-03-29T05:37:21;12.85;;;2.47;;
14292;SDS011;62290;59.420;17.842;2023-03-29T05:39:55;10.85;;;3.08;;
14292;SDS011;62290;59.420;17.842;2023-03-29T05:42:37;9.00;;;2.42;;
14292;SDS011;62290;59.420;17.842;2023-03-29T05:45:07;15.75;;;2.42;;
14292;SDS011;62290;59.420;17.842;2023-03-29T05:47:38;8.40;;;2.05;;
14292;SDS011;62290;59.420;17.842;2023-03-29T05:50:07;6.28;;;1.70;;
14292;SDS011;62290;59.420;17.842;2023-03-29T05:52:38;5.43;;;2.17;;
14292;SDS011;62290;59.420;17.842;2023-03-29T05:55:06;7.65;;;2.22;;
14292;SDS011;62290;59.420;17.842;2023-03-29T05:57:35;3.53;;;1.98;;
14292;SDS011;62290;59.420;17.842;2023-03-29T06:00:05;7.00;;;1.88;;
14292;SDS011;62290;59.420;17.842;2023-03-29T06:02:42;9.50;;;2.25;;
14292;SDS011;62290;59.420;17.842;2023-03-29T06:05:10;4.03;;;1.85;;
14292;SDS011;62290;59.420;17.842;2023-03-29T06:07:55;6.75;;;1.75;;
14292;SDS011;62290;59.420;17.842;2023-03-29T06:10:42;5.20;;;1.67;;
14292;SDS011;62290;59.420;17.842;2023-03-29T06:13:36;4.55;;;1.60;;
14292;SDS011;62290;59.420;17.842;2023-03-29T06:16:05;4.75;;;1.63;;
14292;SDS011;62290;59.420;17.842;2023-03-29T06:18:35;5.85;;;1.77;;
14292;SDS011;62290;59.420;17.842;2023-03-29T06:21:03;3.97;;;1.65;;
14292;SDS011;62290;59.420;17.842;2023-03-29T06:23:34;2.97;;;1.50;;
14292;SDS011;62290;59.420;17.842;2023-03-29T06:26:03;3.55;;;1.50;;
14292;SDS011;62290;59.420;17.842;2023-03-29T06:28:33;3.15;;;1.25;;
14292;SDS011;62290;59.420;17.842;2023-03-29T06:31:02;3.72;;;1.45;;
14292;SDS011;62290;59.420;17.842;2023-03-29T06:33:36;5.00;;;1.20;;
14292;SDS011;62290;59.420;17.842;2023-03-29T06:36:20;3.88;;;1.52;;
14292;SDS011;62290;59.420;17.842;2023-03-29T06:38:49;3.95;;;1.30;;
14292;SDS011;62290;59.420;17.842;2023-03-29T06:41:36;3.58;;;1.27;;
14292;SDS011;62290;59.420;17.842;2023-03-29T06:44:04;3.13;;;1.38;;
14292;SDS011;62290;59.420;17.842;2023-03-29T06:46:37;3.33;;;1.30;;
14292;SDS011;62290;59.420;17.842;2023-03-29T06:49:06;6.88;;;1.63;;
14292;SDS011;62290;59.420;17.842;2023-03-29T06:51:51;1.58;;;1.17;;
14292;SDS011;62290;59.420;17.842;2023-03-29T06:54:21;2.53;;;1.55;;
14292;SDS011;62290;59.420;17.842;2023-03-29T06:56:58;2.53;;;1.67;;
14292;SDS011;62290;59.420;17.842;2023-03-29T06:59:28;2.55;;;1.25;;
14292;SDS011;62290;59.420;17.842;2023-03-29T07:02:02;3.92;;;1.42;;
14292;SDS011;62290;59.420;17.842;2023-03-29T07:04:43;3.70;;;1.38;;
14292;SDS011;62290;59.420;17.842;2023-03-29T07:07:20;3.63;;;1.27;;
14292;SDS011;62290;59.420;17.842;2023-03-29T07:10:09;1.85;;;1.30;;
14292;SDS011;62290;59.420;17.842;2023-03-29T07:13:04;2.17;;;1.30;;
14292;SDS011;62290;59.420;17.842;2023-03-29T07:15:34;4.72;;;1.45;;
14292;SDS011;62290;59.420;17.842;2023-03-29T07:18:22;2.40;;;1.30;;
14292;SDS011;62290;59.420;17.842;2023-03-29T07:20:50;3.28;;;1.48;;
14292;SDS011;62290;59.420;17.842;2023-03-29T07:23:18;3.45;;;1.27;;
14292;SDS011;62290;59.420;17.842;2023-03-29T07:25:50;4.85;;;1.60;;
14292;SDS011;62290;59.420;17.842;2023-03-29T07:28:18;3.03;;;1.25;;
14292;SDS011;62290;59.420;17.842;2023-03-29T07:30:46;9.63;;;1.50;;
14292;SDS011;62290;59.420;17.842;2023-03-29T07:33:17;2.83;;;1.20;;
14292;SDS011;62290;59.420;17.842;2023-03-29T07:35:51;3.63;;;1.30;;
14292;SDS011;62290;59.420;17.842;2023-03-29T07:38:21;3.40;;;1.50;;
14292;SDS011;62290;59.420;17.842;2023-03-29T07:41:04;3.17;;;1.73;;
14292;SDS011;62290;59.420;17.842;2023-03-29T07:43:44;4.22;;;1.42;;
14292;SDS011;62290;59.420;17.842;2023-03-29T07:46:16;3.05;;;1.20;;
14292;SDS011;62290;59.420;17.842;2023-03-29T07:48:44;5.35;;;1.40;;
14292;SDS011;62290;59.420;17.842;2023-03-29T07:51:13;3.28;;;1.20;;
14292;SDS011;62290;59.420;17.842;2023-03-29T07:53:47;5.22;;;1.38;;
14292;SDS011;62290;59.420;17.842;2023-03-29T07:56:35;2.67;;;1.25;;
14292;SDS011;62290;59.420;17.842;2023-03-29T07:59:20;4.15;;;1.33;;
14292;SDS011;62290;59.420;17.842;2023-03-29T08:02:03;2.63;;;1.15;;
14292;SDS011;62290;59.420;17.842;2023-03-29T08:04:44;2.30;;;1.00;;
14292;SDS011;62290;59.420;17.842;2023-03-29T08:07:15;1.95;;;1.02;;
14292;SDS011;62290;59.420;17.842;2023-03-29T08:10:18;2.42;;;1.02;;
14292;SDS011;62290;59.420;17.842;2023-03-29T08:13:12;1.38;;;1.00;;
14292;SDS011;62290;59.420;17.842;2023-03-29T08:15:52;1.80;;;1.00;;
14292;SDS011;62290;59.420;17.842;2023-03-29T08:18:27;3.63;;;0.93;;
14292;SDS011;62290;59.420;17.842;2023-03-29T08:20:58;1.58;;;1.10;;
14292;SDS011;62290;59.420;17.842;2023-03-29T08:23:27;2.88;;;0.98;;
14292;SDS011;62290;59.420;17.842;2023-03-29T08:26:17;1.98;;;0.88;;
14292;SDS011;62290;59.420;17.842;2023-03-29T08:28:49;1.88;;;0.82;;
14292;SDS011;62290;59.420;17.842;2023-03-29T08:31:19;2.40;;;0.80;;
14292;SDS011;62290;59.420;17.842;2023-03-29T08:33:47;2.42;;;0.80;;
14292;SDS011;62290;59.420;17.842;2023-03-29T08:36:50;1.60;;;1.10;;
14292;SDS011;62290;59.420;17.842;2023-03-29T08:39:26;1.20;;;0.82;;
14292;SDS011;62290;59.420;17.842;2023-03-29T08:42:21;0.82;;;0.68;;
14292;SDS011;62290;59.420;17.842;2023-03-29T08:45:03;1.00;;;0.70;;
14292;SDS011;62290;59.420;17.842;2023-03-29T08:47:38;1.58;;;1.00;;
14292;SDS011;62290;59.420;17.842;2023-03-29T08:50:15;1.55;;;0.63;;
14292;SDS011;62290;59.420;17.842;2023-03-29T08:52:47;2.15;;;0.70;;
14292;SDS011;62290;59.420;17.842;2023-03-29T08:55:41;1.38;;;0.85;;
14292;SDS011;62290;59.420;17.842;2023-03-29T08:58:38;1.15;;;0.80;;
14292;SDS011;62290;59.420;17.842;2023-03-29T09:01:08;2.58;;;0.70;;
14292;SDS011;62290;59.420;17.842;2023-03-29T09:03:59;1.30;;;0.80;;
14292;SDS011;62290;59.420;17.842;2023-03-29T09:06:45;3.60;;;1.00;;
14292;SDS011;62290;59.420;17.842;2023-03-29T09:09:21;2.38;;;0.75;;
14292;SDS011;62290;59.420;17.842;2023-03-29T09:11:57;1.45;;;0.55;;
14292;SDS011;62290;59.420;17.842;2023-03-29T09:14:41;1.08;;;0.65;;
14292;SDS011;62290;59.420;17.842;2023-03-29T09:17:40;2.63;;;0.80;;
14292;SDS011;62290;59.420;17.842;2023-03-29T09:20:21;3.88;;;1.20;;
14292;SDS011;62290;59.420;17.842;2023-03-29T09:23:01;3.70;;;0.80;;
14292;SDS011;62290;59.420;17.842;2023-03-29T09:26:05;3.72;;;1.00;;
14292;SDS011;62290;59.420;17.842;2023-03-29T09:28:59;1.58;;;0.82;;
14292;SDS011;62290;59.420;17.842;2023-03-29T09:31:37;2.83;;;0.75;;
14292;SDS011;62290;59.420;17.842;2023-03-29T09:34:13;2.20;;;0.80;;
14292;SDS011;62290;59.420;17.842;2023-03-29T09:36:55;1.52;;;0.80;;
14292;SDS011;62290;59.420;17.842;2023-03-29T09:39:29;1.92;;;0.40;;
14292;SDS011;62290;59.420;17.842;2023-03-29T09:42:07;1.33;;;0.60;;
14292;SDS011;62290;59.420;17.842;2023-03-29T09:44:39;1.55;;;1.02;;
14292;SDS011;62290;59.420;17.842;2023-03-29T09:47:16;3.03;;;0.60;;
14292;SDS011;62290;59.420;17.842;2023-03-29T09:49:54;1.90;;;0.60;;
14292;SDS011;62290;59.420;17.842;2023-03-29T09:52:26;1.83;;;0.65;;
14292;SDS011;62290;59.420;17.842;2023-03-29T09:55:03;0.90;;;0.50;;
14292;SDS011;62290;59.420;17.842;2023-03-29T09:57:51;1.77;;;0.77;;
14292;SDS011;62290;59.420;17.842;2023-03-29T10:00:19;0.93;;;0.50;;
14292;SDS011;62290;59.420;17.842;2023-03-29T10:02:51;3.30;;;0.80;;
14292;SDS011;62290;59.420;17.842;2023-03-29T10:05:27;1.33;;;0.70;;
14292;SDS011;62290;59.420;17.842;2023-03-29T10:08:12;1.95;;;0.60;;
14292;SDS011;62290;59.420;17.842;2023-03-29T10:10:45;1.48;;;0.75;;
14292;SDS011;62290;59.420;17.842;2023-03-29T10:13:17;2.60;;;0.80;;
14292;SDS011;62290;59.420;17.842;2023-03-29T10:18:43;1.00;;;0.60;;
14292;SDS011;62290;59.420;17.842;2023-03-29T10:21:15;0.80;;;0.43;;
14292;SDS011;62290;59.420;17.842;2023-03-29T10:23:45;1.05;;;0.52;;
14292;SDS011;62290;59.420;17.842;2023-03-29T10:26:16;0.73;;;0.40;;
14292;SDS011;62290;59.420;17.842;2023-03-29T10:28:51;0.45;;;0.35;;
14292;SDS011;62290;59.420;17.842;2023-03-29T10:31:22;1.85;;;0.70;;
14292;SDS011;62290;59.420;17.842;2023-03-29T10:33:51;1.60;;;0.60;;
14292;SDS011;62290;59.420;17.842;2023-03-29T10:36:24;0.68;;;0.52;;
14292;SDS011;62290;59.420;17.842;2023-03-29T10:38:55;2.42;;;0.60;;
14292;SDS011;62290;59.420;17.842;2023-03-29T10:41:28;1.45;;;0.50;;
14292;SDS011;62290;59.420;17.842;2023-03-29T10:43:59;0.50;;;0.50;;
14292;SDS011;62290;59.420;17.842;2023-03-29T10:46:28;0.75;;;0.40;;
14292;SDS011;62290;59.420;17.842;2023-03-29T10:48:59;1.33;;;0.60;;
14292;SDS011;62290;59.420;17.842;2023-03-29T10:51:32;1.00;;;0.43;;
14292;SDS011;62290;59.420;17.842;2023-03-29T10:54:00;0.70;;;0.65;;
14292;SDS011;62290;59.420;17.842;2023-03-29T10:56:34;1.55;;;0.65;;
14292;SDS011;62290;59.420;17.842;2023-03-29T11:02:18;2.17;;;0.80;;
14292;SDS011;62290;59.420;17.842;2023-03-29T11:04:56;2.40;;;0.60;;
14292;SDS011;62290;59.420;17.842;2023-03-29T11:07:42;1.45;;;0.70;;
14292;SDS011;62290;59.420;17.842;2023-03-29T11:10:26;1.83;;;0.65;;
14292;SDS011;62290;59.420;17.842;2023-03-29T11:13:03;0.95;;;0.50;;
14292;SDS011;62290;59.420;17.842;2023-03-29T11:15:42;0.95;;;0.55;;
14292;SDS011;62290;59.420;17.842;2023-03-29T11:18:26;0.98;;;0.50;;
14292;SDS011;62290;59.420;17.842;2023-03-29T11:21:06;1.10;;;0.60;;
14292;SDS011;62290;59.420;17.842;2023-03-29T11:23:47;1.13;;;0.70;;
14292;SDS011;62290;59.420;17.842;2023-03-29T11:26:22;1.23;;;0.70;;
14292;SDS011;62290;59.420;17.842;2023-03-29T11:28:55;1.15;;;0.57;;
14292;SDS011;62290;59.420;17.842;2023-03-29T11:31:29;0.63;;;0.55;;
14292;SDS011;62290;59.420;17.842;2023-03-29T11:34:10;0.77;;;0.43;;
14292;SDS011;62290;59.420;17.842;2023-03-29T11:36:50;2.05;;;0.70;;
14292;SDS011;62290;59.420;17.842;2023-03-29T11:39:29;0.73;;;0.40;;
14292;SDS011;62290;59.420;17.842;2023-03-29T11:42:06;2.08;;;0.50;;
14292;SDS011;62290;59.420;17.842;2023-03-29T11:44:40;1.05;;;0.60;;
14292;SDS011;62290;59.420;17.842;2023-03-29T11:47:12;1.77;;;0.70;;
14292;SDS011;62290;59.420;17.842;2023-03-29T11:49:44;0.65;;;0.30;;
14292;SDS011;62290;59.420;17.842;2023-03-29T11:52:18;0.60;;;0.47;;
14292;SDS011;62290;59.420;17.842;2023-03-29T11:54:54;1.45;;;0.50;;
14292;SDS011;62290;59.420;17.842;2023-03-29T11:57:25;0.63;;;0.38;;
14292;SDS011;62290;59.420;17.842;2023-03-29T11:59:59;1.55;;;0.73;;
14292;SDS011;62290;59.420;17.842;2023-03-29T12:02:38;1.33;;;0.60;;
14292;SDS011;62290;59.420;17.842;2023-03-29T12:05:10;0.68;;;0.43;;
14292;SDS011;62290;59.420;17.842;2023-03-29T12:07:44;1.70;;;0.68;;
14292;SDS011;62290;59.420;17.842;2023-03-29T12:10:19;0.95;;;0.47;;
14292;SDS011;62290;59.420;17.842;2023-03-29T12:12:49;1.25;;;0.50;;
14292;SDS011;62290;59.420;17.842;2023-03-29T12:15:25;2.42;;;0.60;;
14292;SDS011;62290;59.420;17.842;2023-03-29T12:17:59;0.82;;;0.40;;
14292;SDS011;62290;59.420;17.842;2023-03-29T12:20:34;1.02;;;0.68;;
14292;SDS011;62290;59.420;17.842;2023-03-29T12:23:10;0.40;;;0.30;;
14292;SDS011;62290;59.420;17.842;2023-03-29T12:25:46;1.05;;;0.52;;
14292;SDS011;62290;59.420;17.842;2023-03-29T12:28:43;1.23;;;0.55;;
14292;SDS011;62290;59.420;17.842;2023-03-29T12:31:25;1.05;;;0.40;;
14292;SDS011;62290;59.420;17.842;2023-03-29T12:40:16;1.08;;;0.40;;
14292;SDS011;62290;59.420;17.842;2023-03-29T12:43:05;1.15;;;0.50;;
14292;SDS011;62290;59.420;17.842;2023-03-29T12:46:04;1.38;;;0.60;;
14292;SDS011;62290;59.420;17.842;2023-03-29T12:48:35;1.08;;;0.57;;
14292;SDS011;62290;59.420;17.842;2023-03-29T12:51:07;1.33;;;0.40;;
14292;SDS011;62290;59.420;17.842;2023-03-29T12:53:40;2.42;;;0.63;;
14292;SDS011;62290;59.420;17.842;2023-03-29T12:56:12;0.85;;;0.30;;
14292;SDS011;62290;59.420;17.842;2023-03-29T12:58:50;1.42;;;0.50;;
14292;SDS011;62290;59.420;17.842;2023-03-29T13:01:21;1.08;;;0.65;;
14292;SDS011;62290;59.420;17.842;2023-03-29T13:03:54;0.85;;;0.30;;
14292;SDS011;62290;59.420;17.842;2023-03-29T13:06:49;0.40;;;0.32;;
14292;SDS011;62290;59.420;17.842;2023-03-29T13:09:28;2.65;;;0.50;;
14292;SDS011;62290;59.420;17.842;2023-03-29T13:12:11;0.75;;;0.45;;
14292;SDS011;62290;59.420;17.842;2023-03-29T13:14:49;0.95;;;0.40;;
14292;SDS011;62290;59.420;17.842;2023-03-29T13:17:26;1.00;;;0.60;;
14292;SDS011;62290;59.420;17.842;2023-03-29T13:20:10;1.05;;;0.50;;
14292;SDS011;62290;59.420;17.842;2023-03-29T13:22:51;1.55;;;0.30;;
14292;SDS011;62290;59.420;17.842;2023-03-29T13:25:33;0.40;;;0.25;;
14292;SDS011;62290;59.420;17.842;2023-03-29T13:28:11;0.73;;;0.50;;
14292;SDS011;62290;59.420;17.842;2023-03-29T13:30:51;2.05;;;0.70;;
14292;SDS011;62290;59.420;17.842;2023-03-29T13:33:34;0.88;;;0.40;;
14292;SDS011;62290;59.420;17.842;2023-03-29T13:36:13;1.17;;;0.80;;
14292;SDS011;62290;59.420;17.842;2023-03-29T13:38:48;0.60;;;0.50;;
14292;SDS011;62290;59.420;17.842;2023-03-29T13:41:27;0.93;;;0.57;;
14292;SDS011;62290;59.420;17.842;2023-03-29T13:43:59;0.20;;;0.20;;
14292;SDS011;62290;59.420;17.842;2023-03-29T13:46:35;1.55;;;0.50;;
14292;SDS011;62290;59.420;17.842;2023-03-29T13:49:14;0.95;;;0.52;;
14292;SDS011;62290;59.420;17.842;2023-03-29T13:51:59;0.75;;;0.40;;
14292;SDS011;62290;59.420;17.842;2023-03-29T13:54:31;0.70;;;0.40;;
14292;SDS011;62290;59.420;17.842;2023-03-29T13:57:04;2.10;;;0.43;;
14292;SDS011;62290;59.420;17.842;2023-03-29T13:59:41;1.55;;;0.80;;
14292;SDS011;62290;59.420;17.842;2023-03-29T14:02:18;0.73;;;0.40;;
14292;SDS011;62290;59.420;17.842;2023-03-29T14:04:52;2.53;;;0.55;;
14292;SDS011;62290;59.420;17.842;2023-03-29T14:07:21;0.30;;;0.30;;
14292;SDS011;62290;59.420;17.842;2023-03-29T14:09:52;2.70;;;0.70;;
14292;SDS011;62290;59.420;17.842;2023-03-29T14:12:23;0.68;;;0.52;;
14292;SDS011;62290;59.420;17.842;2023-03-29T14:14:57;0.55;;;0.35;;
14292;SDS011;62290;59.420;17.842;2023-03-29T14:17:30;1.38;;;0.40;;
14292;SDS011;62290;59.420;17.842;2023-03-29T14:20:00;1.25;;;0.50;;
14292;SDS011;62290;59.420;17.842;2023-03-29T14:22:34;0.80;;;0.22;;
14292;SDS011;62290;59.420;17.842;2023-03-29T14:25:05;0.52;;;0.47;;
14292;SDS011;62290;59.420;17.842;2023-03-29T14:27:39;1.00;;;0.32;;
14292;SDS011;62290;59.420;17.842;2023-03-29T14:33:01;0.82;;;0.50;;
14292;SDS011;62290;59.420;17.842;2023-03-29T14:35:30;0.75;;;0.50;;
14292;SDS011;62290;59.420;17.842;2023-03-29T14:37:59;1.75;;;0.40;;
14292;SDS011;62290;59.420;17.842;2023-03-29T14:40:29;0.68;;;0.43;;
14292;SDS011;62290;59.420;17.842;2023-03-29T14:42:58;0.85;;;0.40;;
14292;SDS011;62290;59.420;17.842;2023-03-29T14:45:30;0.52;;;0.32;;
14292;SDS011;62290;59.420;17.842;2023-03-29T14:47:59;0.30;;;0.30;;
14292;SDS011;62290;59.420;17.842;2023-03-29T14:50:28;0.43;;;0.32;;
14292;SDS011;62290;59.420;17.842;2023-03-29T14:52:57;1.02;;;0.50;;
14292;SDS011;62290;59.420;17.842;2023-03-29T14:55:27;0.40;;;0.40;;
14292;SDS011;62290;59.420;17.842;2023-03-29T14:57:56;2.00;;;0.70;;
14292;SDS011;62290;59.420;17.842;2023-03-29T15:00:26;1.98;;;0.40;;
14292;SDS011;62290;59.420;17.842;2023-03-29T15:02:57;3.58;;;0.55;;
14292;SDS011;62290;59.420;17.842;2023-03-29T15:05:33;0.63;;;0.30;;
14292;SDS011;62290;59.420;17.842;2023-03-29T15:08:04;0.82;;;0.50;;
14292;SDS011;62290;59.420;17.842;2023-03-29T15:10:35;0.63;;;0.35;;
14292;SDS011;62290;59.420;17.842;2023-03-29T15:13:05;0.73;;;0.40;;
14292;SDS011;62290;59.420;17.842;2023-03-29T15:15:35;2.75;;;0.68;;
14292;SDS011;62290;59.420;17.842;2023-03-29T15:18:05;0.35;;;0.35;;
14292;SDS011;62290;59.420;17.842;2023-03-29T15:20:38;0.63;;;0.50;;
14292;SDS011;62290;59.420;17.842;2023-03-29T15:23:16;1.20;;;0.50;;
14292;SDS011;62290;59.420;17.842;2023-03-29T15:25:49;0.70;;;0.40;;
14292;SDS011;62290;59.420;17.842;2023-03-29T15:28:25;0.30;;;0.30;;
14292;SDS011;62290;59.420;17.842;2023-03-29T15:30:57;0.73;;;0.50;;
14292;SDS011;62290;59.420;17.842;2023-03-29T15:33:31;0.30;;;0.30;;